createdAt,value
2022-09-28T00:01:14.726Z,1.30
2022-09-28T00:03:42.712Z,1.75
2022-09-28T00:06:12.423Z,1.45
2022-09-28T00:08:39.656Z,1.17
2022-09-28T00:11:08.480Z,1.10
2022-09-28T00:13:35.744Z,1.15
2022-09-28T00:16:04.561Z,0.95
2022-09-28T00:18:32.281Z,1.67
2022-09-28T00:21:05.928Z,1.13
2022-09-28T00:23:33.744Z,1.15
2022-09-28T00:26:05.420Z,1.20
2022-09-28T00:28:32.345Z,1.23
2022-09-28T00:31:00.392Z,1.10
2022-09-28T00:33:28.766Z,1.33
2022-09-28T00:35:59.461Z,1.20
2022-09-28T00:38:27.627Z,1.30
2022-09-28T00:40:56.011Z,1.40
2022-09-28T00:43:24.525Z,1.33
2022-09-28T00:46:00.960Z,1.33
2022-09-28T00:48:29.497Z,1.17
2022-09-28T00:50:57.353Z,1.58
2022-09-28T00:53:27.236Z,1.17
2022-09-28T00:55:56.022Z,1.50
2022-09-28T00:58:32.188Z,1.65
2022-09-28T01:03:27.291Z,1.40
2022-09-28T01:05:55.789Z,1.23
2022-09-28T01:08:24.624Z,1.60
2022-09-28T01:10:51.965Z,1.20
2022-09-28T01:13:21.046Z,1.50
2022-09-28T01:15:51.929Z,1.13
2022-09-28T01:18:52.328Z,1.10
2022-09-28T01:21:20.919Z,1.10
2022-09-28T01:24:20.007Z,1.10
2022-09-28T01:26:47.152Z,1.30
2022-09-28T01:29:33.515Z,1.27
2022-09-28T01:32:10.707Z,1.10
2022-09-28T01:35:04.280Z,1.15
2022-09-28T01:37:46.227Z,1.00
2022-09-28T01:40:14.950Z,1.20
2022-09-28T01:42:43.908Z,1.20
2022-09-28T01:45:40.716Z,1.00
2022-09-28T01:48:08.629Z,1.20
2022-09-28T01:50:38.041Z,1.00
2022-09-28T01:53:09.110Z,1.17
2022-09-28T01:55:39.758Z,1.25
2022-09-28T01:58:07.836Z,1.10
2022-09-28T02:00:36.886Z,1.30
2022-09-28T02:03:25.127Z,1.40
2022-09-28T02:06:04.463Z,1.10
2022-09-28T02:08:37.283Z,1.27
2022-09-28T02:11:15.844Z,1.45
2022-09-28T02:13:43.190Z,1.40
2022-09-28T02:16:17.296Z,1.45
2022-09-28T02:18:45.682Z,1.27
2022-09-28T02:21:17.087Z,1.25
2022-09-28T02:23:53.428Z,1.10
2022-09-28T02:26:23.431Z,1.10
2022-09-28T02:28:50.764Z,1.50
2022-09-28T02:31:18.334Z,1.02
2022-09-28T02:33:46.998Z,1.10
2022-09-28T02:36:14.492Z,1.30
2022-09-28T02:38:42.951Z,1.27
2022-09-28T02:41:16.863Z,1.02
2022-09-28T02:44:03.235Z,1.15
2022-09-28T02:46:53.216Z,1.15
2022-09-28T02:49:50.106Z,1.50
2022-09-28T02:52:32.714Z,1.08
2022-09-28T02:55:19.336Z,0.93
2022-09-28T02:57:50.174Z,1.40
2022-09-28T03:00:22.736Z,1.15
2022-09-28T03:03:08.128Z,1.20
2022-09-28T03:05:36.810Z,1.10
2022-09-28T03:08:07.540Z,1.15
2022-09-28T03:10:37.806Z,1.10
2022-09-28T03:13:05.652Z,0.98
2022-09-28T03:15:35.686Z,1.30
2022-09-28T03:18:03.035Z,1.10
2022-09-28T03:20:31.112Z,1.13
2022-09-28T03:25:46.904Z,1.10
2022-09-28T03:28:14.991Z,1.17
2022-09-28T03:30:42.881Z,1.15
2022-09-28T03:33:10.170Z,1.10
2022-09-28T03:35:38.662Z,1.00
2022-09-28T03:38:05.928Z,1.45
2022-09-28T03:40:37.107Z,1.38
2022-09-28T03:43:04.342Z,1.20
2022-09-28T03:45:31.725Z,0.95
2022-09-28T03:47:58.596Z,1.20
2022-09-28T03:50:25.650Z,1.10
2022-09-28T03:52:52.835Z,1.15
2022-09-28T03:55:20.012Z,1.45
2022-09-28T03:57:54.077Z,1.50
2022-09-28T04:00:21.773Z,0.95
2022-09-28T04:02:49.368Z,1.17
2022-09-28T04:05:16.504Z,1.17
2022-09-28T04:07:44.000Z,1.08
2022-09-28T04:10:11.844Z,1.10
2022-09-28T04:12:39.489Z,1.20
2022-09-28T04:15:07.120Z,1.30
2022-09-28T04:17:39.213Z,1.10
2022-09-28T04:20:10.044Z,1.60
2022-09-28T04:22:40.428Z,0.90
2022-09-28T04:25:07.610Z,1.40
2022-09-28T04:27:53.335Z,1.27
2022-09-28T04:30:21.882Z,1.10
2022-09-28T04:32:49.255Z,1.08
2022-09-28T04:35:17.249Z,1.15
2022-09-28T04:37:44.447Z,1.05
2022-09-28T04:40:12.303Z,1.10
2022-09-28T04:42:39.758Z,1.40
2022-09-28T04:45:07.719Z,1.30
2022-09-28T04:47:38.379Z,1.10
2022-09-28T04:50:40.955Z,1.10
2022-09-28T04:53:18.499Z,1.15
2022-09-28T04:55:46.638Z,1.00
2022-09-28T04:58:13.516Z,1.20
2022-09-28T05:00:40.689Z,1.27
2022-09-28T05:03:28.148Z,1.40
2022-09-28T05:06:17.918Z,1.13
2022-09-28T05:08:48.689Z,1.05
2022-09-28T05:11:16.794Z,1.00
2022-09-28T05:13:48.872Z,1.48
2022-09-28T05:16:17.739Z,1.48
2022-09-28T05:19:06.465Z,1.40
2022-09-28T05:21:33.690Z,1.45
2022-09-28T05:24:00.911Z,2.13
2022-09-28T05:26:28.455Z,1.90
2022-09-28T05:28:55.692Z,1.63
2022-09-28T05:31:56.830Z,1.30
2022-09-28T05:34:36.714Z,1.80
2022-09-28T05:37:04.204Z,2.10
2022-09-28T05:39:31.434Z,2.35
2022-09-28T05:41:58.612Z,2.47
2022-09-28T05:44:26.032Z,1.98
2022-09-28T05:46:55.012Z,1.60
2022-09-28T05:49:23.520Z,1.50
2022-09-28T05:51:50.700Z,1.67
2022-09-28T05:54:18.194Z,1.80
2022-09-28T05:56:47.154Z,1.50
2022-09-28T05:59:14.582Z,1.55
2022-09-28T06:01:42.319Z,1.58
2022-09-28T06:04:11.270Z,1.17
2022-09-28T06:06:38.813Z,1.67
2022-09-28T06:09:05.984Z,1.60
2022-09-28T06:12:06.002Z,2.28
2022-09-28T06:14:41.515Z,2.20
2022-09-28T06:17:08.801Z,1.85
2022-09-28T06:19:36.176Z,2.00
2022-09-28T06:22:22.006Z,1.25
2022-09-28T06:24:59.403Z,1.60
2022-09-28T06:27:27.235Z,1.60
2022-09-28T06:29:54.557Z,1.30
2022-09-28T06:32:21.811Z,1.40
2022-09-28T06:34:55.455Z,1.30
2022-09-28T06:37:26.080Z,1.33
2022-09-28T06:39:54.649Z,1.42
2022-09-28T06:42:22.013Z,1.30
2022-09-28T06:45:08.464Z,1.25
2022-09-28T06:48:03.855Z,1.40
2022-09-28T06:50:37.716Z,1.55
2022-09-28T06:53:14.633Z,1.23
2022-09-28T06:55:50.375Z,1.67
2022-09-28T06:58:19.972Z,1.73
2022-09-28T07:00:48.060Z,1.75
2022-09-28T07:03:16.825Z,1.60
2022-09-28T07:05:54.415Z,1.63
2022-09-28T07:08:40.088Z,1.10
2022-09-28T07:11:26.953Z,1.60
2022-09-28T07:14:18.887Z,1.50
2022-09-28T07:17:11.676Z,1.50
2022-09-28T07:19:37.479Z,1.23
2022-09-28T07:22:05.675Z,1.63
2022-09-28T07:24:33.584Z,1.48
2022-09-28T07:27:20.028Z,1.63
2022-09-28T07:30:12.566Z,1.52
2022-09-28T07:32:59.148Z,1.35
2022-09-28T07:35:35.567Z,1.27
2022-09-28T07:38:07.484Z,1.38
2022-09-28T07:40:54.384Z,1.60
2022-09-28T07:43:22.780Z,1.92
2022-09-28T07:45:54.153Z,1.52
2022-09-28T07:48:21.515Z,1.63
2022-09-28T07:51:00.571Z,1.52
2022-09-28T07:53:48.169Z,1.35
2022-09-28T07:56:34.892Z,1.10
2022-09-28T07:59:21.052Z,1.42
2022-09-28T08:02:07.145Z,1.20
2022-09-28T08:04:36.680Z,1.52
2022-09-28T08:07:04.553Z,1.08
2022-09-28T08:09:31.926Z,1.33
2022-09-28T08:12:19.662Z,1.20
2022-09-28T08:15:25.320Z,1.40
2022-09-28T08:18:00.462Z,1.27
2022-09-28T08:20:51.662Z,1.10
2022-09-28T08:23:20.349Z,1.10
2022-09-28T08:25:52.579Z,1.25
2022-09-28T08:28:21.874Z,1.10
2022-09-28T08:30:51.394Z,1.17
2022-09-28T08:33:37.357Z,1.63
2022-09-28T08:36:40.106Z,1.23
2022-09-28T08:39:46.132Z,1.20
2022-09-28T08:42:40.890Z,1.27
2022-09-28T08:45:36.602Z,1.30
2022-09-28T08:51:19.833Z,1.50
2022-09-28T08:54:25.330Z,1.30
2022-09-28T08:57:03.138Z,1.48
2022-09-28T09:00:02.969Z,1.65
2022-09-28T09:02:36.163Z,2.05
2022-09-28T09:05:35.926Z,4.10
2022-09-28T09:08:17.182Z,6.32
2022-09-28T09:10:50.689Z,3.05
2022-09-28T09:13:45.939Z,2.70
2022-09-28T09:16:33.645Z,2.83
2022-09-28T09:19:41.943Z,1.90
2022-09-28T09:22:20.984Z,1.70
2022-09-28T09:24:52.783Z,1.42
2022-09-28T09:27:39.831Z,1.95
2022-09-28T09:30:12.859Z,1.33
2022-09-28T09:32:41.192Z,1.10
2022-09-28T09:35:23.690Z,1.25
2022-09-28T09:38:13.688Z,1.05
2022-09-28T09:41:32.015Z,1.58
2022-09-28T09:44:47.341Z,1.20
2022-09-28T09:47:36.563Z,1.42
2022-09-28T09:50:36.071Z,1.13
2022-09-28T09:53:17.107Z,1.10
2022-09-28T09:55:46.948Z,1.60
2022-09-28T09:58:34.905Z,1.40
2022-09-28T10:01:15.373Z,1.20
2022-09-28T10:04:15.602Z,1.52
2022-09-28T10:06:44.230Z,1.20
2022-09-28T10:09:17.709Z,1.17
2022-09-28T10:11:46.120Z,1.25
2022-09-28T10:14:17.525Z,1.10
2022-09-28T10:16:56.990Z,1.20
2022-09-28T10:19:43.787Z,1.30
2022-09-28T10:22:31.263Z,1.15
2022-09-28T10:25:00.627Z,1.25
2022-09-28T10:27:32.649Z,1.10
2022-09-28T10:30:10.184Z,1.20
2022-09-28T10:32:38.469Z,1.42
2022-09-28T10:35:27.673Z,1.20
2022-09-28T10:38:00.121Z,1.10
2022-09-28T10:40:51.623Z,1.10
2022-09-28T10:43:40.029Z,1.13
2022-09-28T10:46:12.626Z,1.00
2022-09-28T10:48:48.554Z,1.10
2022-09-28T10:51:17.202Z,1.05
2022-09-28T10:54:00.354Z,0.88
2022-09-28T10:56:43.234Z,0.93
2022-09-28T11:01:46.383Z,0.90
2022-09-28T11:04:21.209Z,1.05
2022-09-28T11:06:50.140Z,0.90
2022-09-28T11:09:31.092Z,1.05
2022-09-28T11:12:04.100Z,1.17
2022-09-28T11:14:42.388Z,1.42
2022-09-28T11:17:32.633Z,1.30
2022-09-28T11:20:27.384Z,1.20
2022-09-28T11:22:57.651Z,0.82
2022-09-28T11:25:29.515Z,1.10
2022-09-28T11:28:01.888Z,1.05
2022-09-28T11:30:30.185Z,1.33
2022-09-28T11:33:20.266Z,1.27
2022-09-28T11:36:08.742Z,1.48
2022-09-28T11:38:39.091Z,1.25
2022-09-28T11:41:20.785Z,1.58
2022-09-28T11:44:06.420Z,1.05
2022-09-28T11:46:36.919Z,1.30
2022-09-28T11:49:31.945Z,1.50
2022-09-28T11:52:01.251Z,1.50
2022-09-28T11:54:33.814Z,1.67
2022-09-28T11:57:03.311Z,1.33
2022-09-28T11:59:35.343Z,1.15
2022-09-28T12:02:21.776Z,1.10
2022-09-28T12:04:52.740Z,1.48
2022-09-28T12:07:34.562Z,1.10
2022-09-28T12:10:03.744Z,1.10
2022-09-28T12:12:44.328Z,1.38
2022-09-28T12:15:59.578Z,1.20
2022-09-28T12:18:52.776Z,0.98
2022-09-28T12:21:27.490Z,1.00
2022-09-28T12:23:59.267Z,0.80
2022-09-28T12:26:29.601Z,1.05
2022-09-28T12:29:01.826Z,1.20
2022-09-28T12:31:38.751Z,1.17
2022-09-28T12:34:06.031Z,1.10
2022-09-28T12:36:42.996Z,1.02
2022-09-28T12:39:53.690Z,1.20
2022-09-28T12:42:38.545Z,1.20
2022-09-28T12:47:35.699Z,0.90
2022-09-28T12:53:08.869Z,1.00
2022-09-28T12:55:56.482Z,1.10
2022-09-28T12:58:32.728Z,1.20
2022-09-28T13:03:34.984Z,1.05
2022-09-28T13:06:15.880Z,1.10
2022-09-28T13:08:53.291Z,1.00
2022-09-28T13:11:31.940Z,1.10
2022-09-28T13:14:17.900Z,0.95
2022-09-28T13:16:45.135Z,1.02
2022-09-28T13:19:13.121Z,1.02
2022-09-28T13:21:44.690Z,0.93
2022-09-28T13:24:31.648Z,0.82
2022-09-28T13:27:07.081Z,1.00
2022-09-28T13:29:35.055Z,0.77
2022-09-28T13:32:03.512Z,1.05
2022-09-28T13:34:34.958Z,1.00
2022-09-28T13:37:21.569Z,0.90
2022-09-28T13:42:25.068Z,1.00
2022-09-28T13:45:10.879Z,0.95
2022-09-28T13:47:51.311Z,0.95
2022-09-28T13:50:18.585Z,1.10
2022-09-28T13:52:52.244Z,1.05
2022-09-28T13:55:23.252Z,1.30
2022-09-28T13:58:09.237Z,1.10
2022-09-28T14:00:56.781Z,1.02
2022-09-28T14:03:27.038Z,1.20
2022-09-28T14:05:54.280Z,1.38
2022-09-28T14:08:47.986Z,1.00
2022-09-28T14:11:35.369Z,0.80
2022-09-28T14:14:02.853Z,0.90
2022-09-28T14:16:31.874Z,1.13
2022-09-28T14:19:10.042Z,1.35
2022-09-28T14:22:01.002Z,1.15
2022-09-28T14:24:30.999Z,1.50
2022-09-28T14:27:07.843Z,1.10
2022-09-28T14:29:37.274Z,1.13
2022-09-28T14:32:10.381Z,0.95
2022-09-28T14:34:39.673Z,1.33
2022-09-28T14:37:38.190Z,0.70
2022-09-28T14:40:37.734Z,0.80
2022-09-28T14:43:24.647Z,0.70
2022-09-28T14:45:54.627Z,0.80
2022-09-28T14:48:23.255Z,0.88
2022-09-28T14:50:51.476Z,0.70
2022-09-28T14:53:20.839Z,0.60
2022-09-28T14:55:50.563Z,0.60
2022-09-28T14:58:19.711Z,0.82
2022-09-28T15:00:47.628Z,0.90
2022-09-28T15:03:15.299Z,0.70
2022-09-28T15:05:44.469Z,0.90
2022-09-28T15:08:12.363Z,0.70
2022-09-28T15:10:46.150Z,0.60
2022-09-28T15:13:26.798Z,0.80
2022-09-28T15:16:03.809Z,0.60
2022-09-28T15:18:57.391Z,0.70
2022-09-28T15:21:25.034Z,0.90
2022-09-28T15:23:52.286Z,1.40
2022-09-28T15:26:24.423Z,0.98
2022-09-28T15:28:51.687Z,0.73
2022-09-28T15:31:23.924Z,0.80
2022-09-28T15:34:09.974Z,0.80
2022-09-28T15:36:46.946Z,0.77
2022-09-28T15:39:28.605Z,0.90
2022-09-28T15:41:55.932Z,0.73
2022-09-28T15:44:33.456Z,0.73
2022-09-28T15:47:05.756Z,0.77
2022-09-28T15:49:42.143Z,0.80
2022-09-28T15:52:41.915Z,0.75
2022-09-28T15:55:20.152Z,0.90
2022-09-28T15:57:47.666Z,0.90
2022-09-28T16:00:26.076Z,0.80
2022-09-28T16:03:13.487Z,0.85
2022-09-28T16:05:51.453Z,0.70
2022-09-28T16:08:24.798Z,0.90
2022-09-28T16:11:06.341Z,1.33
2022-09-28T16:13:34.925Z,0.60
2022-09-28T16:16:02.225Z,1.00
2022-09-28T16:18:30.806Z,1.10
2022-09-28T16:21:03.189Z,1.05
2022-09-28T16:23:32.011Z,1.08
2022-09-28T16:26:04.123Z,1.40
2022-09-28T16:28:37.467Z,0.98
2022-09-28T16:31:07.743Z,1.13
2022-09-28T16:33:46.770Z,0.90
2022-09-28T16:36:15.698Z,1.00
2022-09-28T16:38:46.328Z,0.85
2022-09-28T16:41:14.460Z,1.10
2022-09-28T16:43:41.686Z,1.77
2022-09-28T16:46:12.125Z,4.15
2022-09-28T16:48:48.451Z,4.85
2022-09-28T16:51:19.682Z,3.92
2022-09-28T16:54:05.958Z,2.80
2022-09-28T16:56:37.029Z,2.40
2022-09-28T16:59:04.645Z,1.60
2022-09-28T17:01:31.992Z,1.25
2022-09-28T17:03:59.278Z,1.20
2022-09-28T17:06:27.417Z,0.93
2022-09-28T17:08:56.644Z,1.00
2022-09-28T17:11:25.075Z,0.98
2022-09-28T17:13:56.690Z,0.90
2022-09-28T17:16:42.963Z,1.55
2022-09-28T17:19:32.022Z,0.80
2022-09-28T17:21:59.234Z,1.15
2022-09-28T17:24:26.606Z,1.42
2022-09-28T17:26:54.327Z,1.08
2022-09-28T17:29:21.834Z,1.85
2022-09-28T17:31:49.095Z,2.22
2022-09-28T17:34:16.926Z,2.42
2022-09-28T17:36:44.423Z,1.95
2022-09-28T17:39:15.799Z,1.67
2022-09-28T17:41:43.385Z,1.45
2022-09-28T17:44:11.177Z,1.60
2022-09-28T17:46:39.605Z,1.00
2022-09-28T17:49:08.353Z,0.90
2022-09-28T17:51:39.670Z,1.10
2022-09-28T17:54:08.100Z,2.00
2022-09-28T17:56:36.286Z,1.67
2022-09-28T17:59:10.790Z,2.10
2022-09-28T18:01:39.415Z,3.42
2022-09-28T18:04:08.207Z,3.83
2022-09-28T18:06:37.131Z,6.90
2022-09-28T18:09:05.346Z,6.07
2022-09-28T18:11:33.613Z,5.93
2022-09-28T18:14:01.013Z,4.20
2022-09-28T18:16:28.928Z,2.58
2022-09-28T18:18:56.760Z,2.05
2022-09-28T18:21:24.115Z,1.48
2022-09-28T18:23:51.625Z,1.30
2022-09-28T18:26:21.744Z,1.20
2022-09-28T18:28:49.082Z,1.00
2022-09-28T18:31:19.268Z,1.30
2022-09-28T18:33:48.311Z,1.30
2022-09-28T18:36:15.297Z,1.25
2022-09-28T18:38:43.015Z,1.33
2022-09-28T18:41:17.129Z,1.23
2022-09-28T18:43:49.195Z,1.38
2022-09-28T18:46:20.465Z,1.55
2022-09-28T18:48:47.821Z,1.20
2022-09-28T18:51:15.362Z,0.90
2022-09-28T18:53:42.965Z,0.80
2022-09-28T18:56:12.091Z,0.90
2022-09-28T18:58:40.483Z,0.80
2022-09-28T19:01:31.689Z,1.27
2022-09-28T19:04:00.684Z,1.40
2022-09-28T19:06:28.494Z,1.10
2022-09-28T19:08:56.521Z,1.30
2022-09-28T19:11:24.435Z,1.00
2022-09-28T19:13:52.636Z,1.13
2022-09-28T19:16:21.813Z,1.00
2022-09-28T19:18:50.538Z,1.27
2022-09-28T19:21:18.044Z,1.17
2022-09-28T19:23:49.168Z,0.95
2022-09-28T19:26:18.482Z,1.25
2022-09-28T19:28:45.677Z,1.50
2022-09-28T19:31:13.233Z,1.20
2022-09-28T19:33:41.713Z,1.50
2022-09-28T19:36:10.330Z,1.35
2022-09-28T19:38:38.145Z,1.30
2022-09-28T19:41:12.266Z,1.80
2022-09-28T19:43:42.225Z,1.30
2022-09-28T19:46:09.535Z,1.30
2022-09-28T19:48:36.791Z,1.20
2022-09-28T19:51:05.776Z,1.60
2022-09-28T19:53:36.585Z,1.77
2022-09-28T19:56:05.378Z,1.35
2022-09-28T19:58:34.421Z,1.15
2022-09-28T20:01:05.374Z,1.23
2022-09-28T20:03:32.796Z,1.58
2022-09-28T20:06:01.257Z,1.65
2022-09-28T20:08:30.214Z,1.38
2022-09-28T20:10:59.660Z,1.95
2022-09-28T20:13:31.768Z,1.70
2022-09-28T20:16:05.937Z,1.42
2022-09-28T20:18:35.008Z,1.10
2022-09-28T20:21:03.236Z,1.20
2022-09-28T20:23:31.017Z,1.48
2022-09-28T20:25:58.965Z,1.48
2022-09-28T20:28:26.673Z,1.35
2022-09-28T20:30:53.962Z,2.00
2022-09-28T20:33:28.680Z,1.73
2022-09-28T20:35:56.076Z,1.50
2022-09-28T20:38:23.715Z,1.60
2022-09-28T20:40:50.956Z,1.48
2022-09-28T20:43:18.920Z,1.30
2022-09-28T20:45:46.182Z,1.35
2022-09-28T20:48:13.403Z,1.25
2022-09-28T20:50:42.619Z,1.52
2022-09-28T20:53:09.865Z,1.48
2022-09-28T20:55:37.075Z,1.33
2022-09-28T20:58:04.642Z,1.23
2022-09-28T21:00:31.901Z,1.10
2022-09-28T21:02:59.159Z,1.27
2022-09-28T21:05:26.391Z,1.40
2022-09-28T21:07:53.603Z,1.33
2022-09-28T21:10:20.845Z,1.40
2022-09-28T21:12:53.074Z,1.42
2022-09-28T21:15:20.340Z,1.23
2022-09-28T21:17:47.527Z,1.55
2022-09-28T21:20:14.428Z,1.30
2022-09-28T21:22:41.640Z,1.40
2022-09-28T21:25:08.930Z,1.42
2022-09-28T21:27:36.751Z,1.55
2022-09-28T21:30:04.528Z,1.42
2022-09-28T21:32:34.252Z,1.50
2022-09-28T21:35:01.440Z,1.45
2022-09-28T21:37:28.652Z,1.67
2022-09-28T21:39:56.295Z,1.52
2022-09-28T21:42:23.532Z,1.33
2022-09-28T21:44:50.716Z,1.30
2022-09-28T21:47:17.904Z,1.80
2022-09-28T21:49:45.135Z,1.48
2022-09-28T21:52:12.799Z,1.27
2022-09-28T21:54:41.758Z,1.30
2022-09-28T21:57:09.683Z,1.40
2022-09-28T21:59:36.920Z,1.40
2022-09-28T22:02:05.804Z,1.48
2022-09-28T22:04:32.987Z,1.52
2022-09-28T22:07:00.238Z,1.20
2022-09-28T22:09:27.519Z,1.60
2022-09-28T22:11:54.811Z,1.52
2022-09-28T22:14:22.280Z,1.85
2022-09-28T22:16:49.467Z,1.92
2022-09-28T22:19:16.698Z,1.73
2022-09-28T22:21:44.264Z,1.65
2022-09-28T22:24:11.556Z,1.30
2022-09-28T22:26:39.476Z,1.52
2022-09-28T22:29:07.964Z,2.03
2022-09-28T22:31:36.911Z,1.88
2022-09-28T22:34:04.573Z,1.88
2022-09-28T22:36:32.192Z,1.73
2022-09-28T22:38:59.728Z,1.40
2022-09-28T22:41:27.336Z,1.85
2022-09-28T22:43:54.763Z,1.58
2022-09-28T22:46:23.694Z,1.90
2022-09-28T22:48:55.777Z,1.45
2022-09-28T22:51:23.893Z,1.63
2022-09-28T22:53:51.495Z,2.00
2022-09-28T22:56:19.404Z,2.13
2022-09-28T22:58:46.842Z,2.10
2022-09-28T23:01:14.295Z,1.75
2022-09-28T23:03:42.573Z,1.38
2022-09-28T23:06:10.148Z,1.25
2022-09-28T23:08:37.371Z,1.60
2022-09-28T23:11:05.142Z,1.52
2022-09-28T23:13:32.523Z,1.58
2022-09-28T23:16:01.537Z,1.48
2022-09-28T23:18:29.910Z,1.70
2022-09-28T23:21:02.167Z,1.50
2022-09-28T23:23:29.421Z,1.60
2022-09-28T23:25:57.026Z,1.85
2022-09-28T23:28:25.192Z,1.65
2022-09-28T23:30:52.972Z,1.65
2022-09-28T23:33:20.970Z,1.60
2022-09-28T23:35:48.430Z,1.75
2022-09-28T23:38:18.099Z,1.85
2022-09-28T23:40:46.338Z,1.48
2022-09-28T23:43:14.366Z,2.15
2022-09-28T23:45:43.055Z,1.50
2022-09-28T23:48:10.297Z,2.03
2022-09-28T23:50:37.479Z,1.58
2022-09-28T23:53:05.587Z,1.70
2022-09-28T23:55:32.834Z,1.73
2022-09-28T23:58:00.010Z,1.63
